ANTO2: Kiamichi River, Antlers, OKla

                                SHEF ID:       ANTO2     Kiamichi River near Antlers, OK
STATION TYPE:
Regulating: Stage = 22.00, Flow = 20000

PRECIP PRECIP(A) STAGE RIV-FLOW BAT-LOAD
in in ft cfs volt
Ccp-Rev Ccp-Rev Ccp-Rev Ccp-Rev Ccp-Rev
(America/Chicago)
03/22 00:00 0.00 ---- 3.37 321 12.58
03/22 01:00 0.00 ---- 3.37 321 12.55
03/22 02:00 0.00 ---- 3.36 318 12.53
03/22 03:00 0.00 ---- 3.36 318 12.51
03/22 04:00 0.00 ---- 3.35 316 12.50
03/22 05:00 0.00 ---- 3.35 316 12.47
03/22 06:00 0.00 ---- 3.35 316 12.45
03/22 07:00 0.00 ---- 3.34 313 12.44
03/22 08:00 0.00 ---- 3.34 313 12.44
03/22 09:00 0.00 ---- 3.34 313 12.48
03/22 10:00 0.00 ---- 3.34 313 12.68
03/22 11:00 0.00 ---- 3.30 302 13.32
03/22 12:00 0.00 ---- 3.28 297 13.19
03/22 13:00 0.00 ---- 3.23 283 12.99
03/22 14:00 0.00 ---- 3.26 291 12.93
03/22 15:00 0.00 ---- 3.29 299 12.87
03/22 16:00 0.00 ---- 3.21 278 12.84
03/22 17:00 0.00 ---- 3.27 294 12.82
03/22 18:00 0.00 ---- 3.27 294 12.82
03/22 19:00 0.00 ---- 3.25 289 12.80
03/22 20:00 0.00 ---- 3.25 289 12.71
03/22 21:00 0.00 ---- 3.25 289 12.67
03/22 22:00 0.00 ---- 3.25 289 12.65
03/22 23:00 0.00 ---- 3.24 ---- 12.63
Data processed at Mon 23Mar2026 04:32 GMT

NOTICE: If you are parsing this page

Please convert to using our Data API. Starting early 2026 we will be migrating to: https://water.usace.army.mil with modern pages rendered in JavaScript. When this migration completes you will no longer be able to scrape this page! CWMSDataAPI (CDA)

Timeseries IDs (TSIDs)

TSIDs used from left to right in the data table
ANTL.Precip-Inc.Total.1Hour.1Hour.Ccp-Rev
ANTL.Precip-Inc Alt.Total.1Hour.1Hour.Ccp-Rev
ANTL.Stage.Inst.1Hour.0.Ccp-Rev
ANTL.Flow.Inst.1Hour.0.Ccp-Rev
ANTL.Volt-Battery Load.Inst.1Hour.0.Ccp-Rev

                            

All information presented herein is the property of the government of the United States of America and may be revised or deleted at any time without prior notice. Dissemination of this information without the expressed written consent of the Public Affairs Office, Tulsa District U.S. Army Corps of Engineers is strictly prohibited. These data are gathered electronically and, as presented, have NOT undergone any form of quality control. These data are NOT guaranteed to be valid or correct.